createdAt,value
2022-09-07T00:02:08.596Z,16.63
2022-09-07T00:04:35.271Z,16.59
2022-09-07T00:07:01.889Z,16.45
2022-09-07T00:09:28.987Z,16.43
2022-09-07T00:11:55.535Z,16.43
2022-09-07T00:14:22.078Z,16.45
2022-09-07T00:16:48.710Z,16.38
2022-09-07T00:19:15.260Z,16.33
2022-09-07T00:21:41.802Z,16.30
2022-09-07T00:24:08.326Z,16.38
2022-09-07T00:26:35.431Z,16.45
2022-09-07T00:29:04.003Z,16.48
2022-09-07T00:31:31.719Z,16.48
2022-09-07T00:34:00.448Z,16.40
2022-09-07T00:36:27.828Z,16.38
2022-09-07T00:38:54.521Z,16.33
2022-09-07T00:41:22.609Z,16.39
2022-09-07T00:43:57.685Z,16.49
2022-09-07T00:46:31.956Z,16.76
2022-09-07T00:49:09.004Z,16.81
2022-09-07T00:51:57.984Z,17.02
2022-09-07T00:54:39.905Z,17.19
2022-09-07T00:57:07.467Z,17.20
2022-09-07T00:59:42.784Z,17.07
2022-09-07T01:02:09.648Z,17.07
2022-09-07T01:04:36.550Z,16.96
2022-09-07T01:07:03.921Z,16.98
2022-09-07T01:09:31.106Z,16.90
2022-09-07T01:12:00.198Z,16.87
2022-09-07T01:14:31.595Z,16.90
2022-09-07T01:17:03.886Z,16.92
2022-09-07T01:19:57.471Z,16.83
2022-09-07T01:22:35.854Z,16.86
2022-09-07T01:25:17.704Z,16.89
2022-09-07T01:27:58.490Z,17.13
2022-09-07T01:30:25.990Z,17.22
2022-09-07T01:33:25.371Z,17.25
2022-09-07T01:36:17.855Z,17.33
2022-09-07T01:38:52.482Z,17.44
2022-09-07T01:41:32.669Z,17.61
2022-09-07T01:44:17.519Z,17.68
2022-09-07T01:47:01.357Z,17.52
2022-09-07T01:49:27.831Z,17.39
2022-09-07T01:52:02.238Z,17.35
2022-09-07T01:54:43.531Z,17.24
2022-09-07T01:57:19.060Z,17.25
2022-09-07T01:59:50.689Z,17.25
2022-09-07T02:02:23.438Z,17.20
2022-09-07T02:04:52.698Z,16.99
2022-09-07T02:07:25.185Z,16.86
2022-09-07T02:09:57.253Z,16.82
2022-09-07T02:12:36.454Z,16.90
2022-09-07T02:15:10.552Z,16.87
2022-09-07T02:17:43.006Z,16.78
2022-09-07T02:20:18.722Z,16.88
2022-09-07T02:22:52.130Z,16.92
2022-09-07T02:25:24.145Z,16.95
2022-09-07T02:27:56.439Z,17.12
2022-09-07T02:30:23.079Z,17.13
2022-09-07T02:32:49.698Z,17.16
2022-09-07T02:35:16.871Z,17.08
2022-09-07T02:37:44.607Z,17.16
2022-09-07T02:40:12.084Z,17.28
2022-09-07T02:42:39.441Z,17.25
2022-09-07T02:45:09.359Z,17.18
2022-09-07T02:48:03.413Z,17.25
2022-09-07T02:50:53.663Z,17.09
2022-09-07T02:53:38.501Z,16.97
2022-09-07T02:56:46.429Z,16.81
2022-09-07T02:59:29.248Z,16.68
2022-09-07T03:02:05.128Z,16.63
2022-09-07T03:04:47.006Z,16.53
2022-09-07T03:07:21.369Z,16.47
2022-09-07T03:09:53.279Z,16.46
2022-09-07T03:12:19.920Z,16.37
2022-09-07T03:14:46.818Z,16.40
2022-09-07T03:17:17.010Z,16.39
2022-09-07T03:19:43.526Z,16.24
2022-09-07T03:22:10.124Z,16.15
2022-09-07T03:24:37.069Z,16.18
2022-09-07T03:27:03.999Z,16.29
2022-09-07T03:29:31.105Z,16.25
2022-09-07T03:31:57.639Z,16.09
2022-09-07T03:34:24.242Z,15.94
2022-09-07T03:36:50.795Z,15.93
2022-09-07T03:39:20.942Z,15.94
2022-09-07T03:41:47.873Z,15.93
2022-09-07T03:44:14.446Z,15.81
2022-09-07T03:46:41.099Z,15.76
2022-09-07T03:49:07.642Z,15.83
2022-09-07T03:51:34.187Z,15.76
2022-09-07T03:54:00.787Z,15.71
2022-09-07T03:56:27.636Z,15.65
2022-09-07T03:58:55.467Z,15.69
2022-09-07T04:01:24.409Z,15.65
2022-09-07T04:03:51.681Z,15.65
2022-09-07T04:06:19.447Z,15.69
2022-09-07T04:08:46.430Z,15.66
2022-09-07T04:11:15.991Z,15.75
2022-09-07T04:13:43.281Z,15.58
2022-09-07T04:16:18.843Z,15.53
2022-09-07T04:18:45.911Z,15.57
2022-09-07T04:21:12.757Z,15.63
2022-09-07T04:23:40.764Z,15.54
2022-09-07T04:26:12.809Z,15.50
2022-09-07T04:28:39.391Z,15.53
2022-09-07T04:31:06.275Z,15.50
2022-09-07T04:33:34.346Z,15.59
2022-09-07T04:36:01.896Z,15.51
2022-09-07T04:38:29.303Z,15.57
2022-09-07T04:41:06.502Z,15.62
2022-09-07T04:43:33.047Z,15.57
2022-09-07T04:46:03.422Z,15.45
2022-09-07T04:48:30.284Z,15.30
2022-09-07T04:51:05.872Z,15.34
2022-09-07T04:53:33.870Z,15.30
2022-09-07T04:56:00.677Z,15.07
2022-09-07T04:58:27.410Z,14.96
2022-09-07T05:00:54.440Z,14.83
2022-09-07T05:03:21.351Z,14.86
2022-09-07T05:05:48.050Z,14.95
2022-09-07T05:08:14.613Z,15.03
2022-09-07T05:10:50.900Z,14.99
2022-09-07T05:13:17.522Z,14.91
2022-09-07T05:15:44.171Z,14.98
2022-09-07T05:18:10.903Z,14.88
2022-09-07T05:20:37.693Z,14.86
2022-09-07T05:23:04.234Z,14.90
2022-09-07T05:25:31.373Z,14.98
2022-09-07T05:27:57.914Z,15.09
2022-09-07T05:33:11.158Z,15.17
2022-09-07T05:35:37.709Z,15.28
2022-09-07T05:38:04.341Z,15.40
2022-09-07T05:40:32.144Z,15.53
2022-09-07T05:42:59.448Z,15.67
2022-09-07T05:45:26.312Z,15.76
2022-09-07T05:47:54.302Z,15.92
2022-09-07T05:50:20.851Z,16.18
2022-09-07T05:52:48.510Z,16.47
2022-09-07T05:55:29.571Z,16.64
2022-09-07T05:57:56.750Z,16.76
2022-09-07T06:00:24.274Z,17.01
2022-09-07T06:02:50.857Z,17.06
2022-09-07T06:05:17.653Z,17.17
2022-09-07T06:07:48.165Z,17.15
2022-09-07T06:13:02.094Z,17.36
2022-09-07T06:15:28.679Z,17.36
2022-09-07T06:17:55.288Z,17.41
2022-09-07T06:20:21.803Z,17.47
2022-09-07T06:22:48.426Z,17.46
2022-09-07T06:25:15.064Z,17.57
2022-09-07T06:27:41.617Z,17.66
2022-09-07T06:30:08.735Z,17.82
2022-09-07T06:32:46.002Z,17.80
2022-09-07T06:35:13.600Z,17.73
2022-09-07T06:37:40.667Z,17.65
2022-09-07T06:43:55.478Z,17.51
2022-09-07T06:49:09.298Z,17.52
2022-09-07T06:51:35.854Z,17.53
2022-09-07T06:56:49.034Z,17.66
2022-09-07T06:59:15.572Z,17.68
2022-09-07T07:01:42.085Z,17.86
2022-09-07T07:04:08.625Z,18.07
2022-09-07T07:06:39.956Z,18.31
2022-09-07T07:09:08.448Z,18.57
2022-09-07T07:11:37.144Z,18.78
2022-09-07T07:14:04.125Z,19.03
2022-09-07T07:16:30.872Z,19.22
2022-09-07T07:18:58.024Z,19.44
2022-09-07T07:21:24.624Z,19.78
2022-09-07T07:23:52.605Z,20.13
2022-09-07T07:26:21.850Z,20.38
2022-09-07T07:31:26.799Z,20.62
2022-09-07T07:33:54.062Z,20.62
2022-09-07T07:36:23.179Z,20.89
2022-09-07T07:38:59.793Z,20.95
2022-09-07T07:44:18.762Z,21.21
2022-09-07T07:46:51.102Z,21.19
2022-09-07T07:49:18.579Z,21.20
2022-09-07T07:54:34.135Z,21.21
2022-09-07T07:57:00.648Z,21.38
2022-09-07T07:59:27.631Z,21.47
2022-09-07T08:01:54.396Z,21.48
2022-09-07T08:04:21.162Z,21.49
2022-09-07T08:06:47.711Z,21.44
2022-09-07T08:09:14.371Z,21.63
2022-09-07T08:11:41.501Z,21.63
2022-09-07T08:14:08.651Z,21.66
2022-09-07T08:16:36.327Z,21.88
2022-09-07T08:19:03.429Z,22.02
2022-09-07T08:21:30.017Z,22.32
2022-09-07T08:23:56.853Z,22.54
2022-09-07T08:26:23.361Z,23.08
2022-09-07T08:28:49.874Z,23.66
2022-09-07T08:31:17.424Z,24.12
2022-09-07T08:33:44.606Z,24.45
2022-09-07T08:36:16.716Z,24.87
2022-09-07T08:38:43.894Z,25.41
2022-09-07T08:41:40.640Z,25.59
2022-09-07T08:44:18.586Z,25.30
2022-09-07T08:47:22.850Z,25.68
2022-09-07T08:50:07.011Z,25.68
2022-09-07T08:52:45.037Z,25.61
2022-09-07T08:55:21.026Z,25.58
2022-09-07T08:57:56.578Z,25.46
2022-09-07T09:00:23.156Z,25.52
2022-09-07T09:05:43.326Z,25.84
2022-09-07T09:08:45.562Z,25.40
2022-09-07T09:11:46.503Z,25.01
2022-09-07T09:14:27.107Z,24.27
2022-09-07T09:17:09.121Z,24.03
2022-09-07T09:19:57.894Z,23.85
2022-09-07T09:22:28.335Z,23.82
2022-09-07T09:25:05.732Z,23.92
2022-09-07T09:27:32.251Z,23.72
2022-09-07T09:29:58.753Z,23.71
2022-09-07T09:32:33.361Z,23.75
2022-09-07T09:35:11.458Z,23.80
2022-09-07T09:37:39.781Z,23.46
2022-09-07T09:40:09.394Z,23.29
2022-09-07T09:42:38.821Z,23.60
2022-09-07T09:45:19.300Z,23.77
2022-09-07T09:47:51.083Z,24.13
2022-09-07T09:53:27.405Z,24.08
2022-09-07T09:55:54.717Z,23.94
2022-09-07T10:01:35.329Z,23.92
2022-09-07T10:04:25.609Z,24.50
2022-09-07T10:06:58.040Z,24.91
2022-09-07T10:09:40.601Z,25.16
2022-09-07T10:12:22.689Z,25.53
2022-09-07T10:14:49.237Z,25.42
2022-09-07T10:17:31.991Z,25.60
2022-09-07T10:20:22.936Z,25.61
2022-09-07T10:22:52.601Z,25.43
2022-09-07T10:25:48.870Z,25.34
2022-09-07T10:28:22.544Z,25.26
2022-09-07T10:31:15.331Z,25.07
2022-09-07T10:36:49.919Z,25.76
2022-09-07T10:39:31.545Z,25.71
2022-09-07T10:42:29.060Z,25.36
2022-09-07T10:45:10.745Z,26.16
2022-09-07T10:47:52.449Z,26.95
2022-09-07T10:50:31.904Z,26.38
2022-09-07T10:53:43.109Z,26.17
2022-09-07T10:56:35.530Z,26.66
2022-09-07T11:02:38.314Z,26.77
2022-09-07T11:05:38.516Z,27.04
2022-09-07T11:09:14.607Z,27.43
2022-09-07T11:14:20.944Z,27.88
2022-09-07T11:16:55.434Z,28.09
2022-09-07T11:19:38.224Z,28.32
2022-09-07T11:22:28.100Z,27.46
2022-09-07T11:28:01.705Z,26.58
2022-09-07T11:30:40.847Z,26.55
2022-09-07T11:33:20.846Z,27.12
2022-09-07T11:36:12.237Z,27.28
2022-09-07T11:38:45.603Z,27.22
2022-09-07T11:41:15.174Z,27.29
2022-09-07T11:43:55.847Z,27.54
2022-09-07T11:46:28.149Z,27.27
2022-09-07T11:48:58.576Z,26.51
2022-09-07T11:51:53.690Z,26.70
2022-09-07T11:54:23.271Z,27.08
2022-09-07T11:57:18.954Z,26.95
2022-09-07T12:00:05.728Z,26.72
2022-09-07T12:03:09.851Z,26.60
2022-09-07T12:06:01.136Z,26.44
2022-09-07T12:08:58.598Z,26.40
2022-09-07T12:11:56.157Z,26.92
2022-09-07T12:14:28.486Z,26.51
2022-09-07T12:17:08.475Z,27.26
2022-09-07T12:19:35.293Z,28.10
2022-09-07T12:22:02.031Z,27.88
2022-09-07T12:24:54.398Z,27.68
2022-09-07T12:27:20.872Z,27.98
2022-09-07T12:30:11.074Z,28.13
2022-09-07T12:32:55.417Z,27.76
2022-09-07T12:35:31.639Z,27.73
2022-09-07T12:38:26.898Z,27.22
2022-09-07T12:41:22.963Z,27.41
2022-09-07T12:43:49.504Z,27.17
2022-09-07T12:46:40.396Z,27.21
2022-09-07T12:49:18.814Z,26.58
2022-09-07T12:52:16.216Z,26.66
2022-09-07T12:55:26.571Z,26.56
2022-09-07T12:58:11.581Z,26.97
2022-09-07T13:01:15.392Z,27.31
2022-09-07T13:03:51.920Z,27.95
2022-09-07T13:09:34.819Z,27.59
2022-09-07T13:15:09.621Z,27.57
2022-09-07T13:17:42.947Z,27.66
2022-09-07T13:20:09.387Z,28.20
2022-09-07T13:22:36.013Z,28.02
2022-09-07T13:25:20.202Z,28.27
2022-09-07T13:28:00.754Z,28.27
2022-09-07T13:30:33.467Z,28.69
2022-09-07T13:33:24.745Z,27.93
2022-09-07T13:36:05.733Z,28.12
2022-09-07T13:38:34.896Z,28.44
2022-09-07T13:41:13.387Z,27.73
2022-09-07T13:43:40.319Z,27.83
2022-09-07T13:46:40.591Z,27.43
2022-09-07T13:49:27.685Z,27.47
2022-09-07T13:52:19.191Z,27.24
2022-09-07T13:55:13.176Z,26.91
2022-09-07T13:58:06.315Z,26.99
2022-09-07T14:00:34.089Z,27.18
2022-09-07T14:03:05.696Z,26.78
2022-09-07T14:05:32.286Z,26.68
2022-09-07T14:07:59.048Z,26.71
2022-09-07T14:10:26.526Z,26.78
2022-09-07T14:13:14.108Z,26.40
2022-09-07T14:15:48.008Z,26.29
2022-09-07T14:18:16.065Z,26.48
2022-09-07T14:20:46.598Z,26.62
2022-09-07T14:23:19.353Z,26.31
2022-09-07T14:28:37.365Z,25.70
2022-09-07T14:31:05.947Z,25.74
2022-09-07T14:33:32.929Z,25.88
2022-09-07T14:35:59.905Z,25.95
2022-09-07T14:41:18.862Z,25.68
2022-09-07T14:43:56.725Z,25.77
2022-09-07T14:46:29.326Z,25.83
2022-09-07T14:48:57.982Z,25.96
2022-09-07T14:51:35.216Z,25.77
2022-09-07T14:54:05.978Z,25.82
2022-09-07T14:56:39.201Z,25.80
2022-09-07T14:59:32.887Z,25.58
2022-09-07T15:02:18.360Z,25.44
2022-09-07T15:04:50.670Z,25.31
2022-09-07T15:07:40.170Z,25.25
2022-09-07T15:10:26.765Z,25.23
2022-09-07T15:12:56.206Z,25.25
2022-09-07T15:15:34.583Z,25.32
2022-09-07T15:18:25.610Z,25.16
2022-09-07T15:20:52.917Z,25.46
2022-09-07T15:23:20.043Z,25.46
2022-09-07T15:25:53.478Z,25.54
2022-09-07T15:34:11.442Z,25.58
2022-09-07T15:36:40.704Z,25.48
2022-09-07T15:39:13.434Z,25.54
2022-09-07T15:41:39.931Z,25.73
2022-09-07T15:44:06.438Z,26.01
2022-09-07T15:46:33.092Z,26.25
2022-09-07T15:49:01.682Z,26.32
2022-09-07T15:54:17.247Z,26.19
2022-09-07T15:57:48.111Z,26.28
2022-09-07T15:59:30.721Z,26.19
2022-09-07T16:01:58.151Z,26.18
2022-09-07T16:04:25.193Z,26.07
2022-09-07T16:06:51.834Z,25.78
2022-09-07T16:09:21.688Z,25.61
2022-09-07T16:11:50.073Z,25.59
2022-09-07T16:14:17.555Z,25.68
2022-09-07T16:19:34.618Z,25.03
2022-09-07T16:22:01.855Z,24.81
2022-09-07T16:24:28.762Z,24.70
2022-09-07T16:26:55.398Z,24.71
2022-09-07T16:29:21.932Z,24.79
2022-09-07T16:34:35.255Z,24.57
2022-09-07T16:37:01.841Z,24.45
2022-09-07T16:39:29.197Z,24.24
2022-09-07T16:41:55.962Z,24.12
2022-09-07T16:44:22.681Z,24.03
2022-09-07T16:46:50.419Z,23.87
2022-09-07T16:49:17.814Z,23.72
2022-09-07T16:51:45.783Z,23.55
2022-09-07T16:54:13.667Z,23.52
2022-09-07T16:56:40.308Z,23.49
2022-09-07T16:59:09.639Z,23.43
2022-09-07T17:01:40.268Z,23.34
2022-09-07T17:04:10.945Z,23.24
2022-09-07T17:06:38.964Z,23.14
2022-09-07T17:09:06.346Z,23.33
2022-09-07T17:11:34.885Z,23.14
2022-09-07T17:14:01.966Z,23.03
2022-09-07T17:16:31.295Z,23.00
2022-09-07T17:21:46.443Z,22.98
2022-09-07T17:24:13.093Z,22.89
2022-09-07T17:26:42.150Z,22.77
2022-09-07T17:29:10.408Z,22.80
2022-09-07T17:34:24.435Z,22.57
2022-09-07T17:36:51.589Z,22.42
2022-09-07T17:39:19.277Z,22.25
2022-09-07T17:41:48.477Z,22.20
2022-09-07T17:44:15.796Z,22.06
2022-09-07T17:46:42.371Z,22.05
2022-09-07T17:49:12.412Z,21.98
2022-09-07T17:51:39.695Z,21.79
2022-09-07T17:54:11.417Z,21.72
2022-09-07T17:56:39.847Z,21.54
2022-09-07T18:01:54.439Z,21.48
2022-09-07T18:04:21.738Z,21.50
2022-09-07T18:06:48.459Z,21.68
2022-09-07T18:09:15.038Z,21.67
2022-09-07T18:11:45.407Z,21.60
2022-09-07T18:14:14.579Z,21.61
2022-09-07T18:16:43.173Z,21.49
2022-09-07T18:19:11.974Z,21.42
2022-09-07T18:21:41.205Z,21.39
2022-09-07T18:24:20.197Z,21.25
2022-09-07T18:26:50.409Z,21.21
2022-09-07T18:29:28.695Z,21.21
2022-09-07T18:31:57.954Z,21.31
2022-09-07T18:34:24.605Z,21.21
2022-09-07T18:36:51.313Z,21.28
2022-09-07T18:39:18.397Z,21.36
2022-09-07T18:41:45.131Z,21.64
2022-09-07T18:46:58.439Z,21.83
2022-09-07T18:49:25.264Z,21.71
2022-09-07T18:54:41.418Z,21.23
2022-09-07T18:57:08.197Z,21.16
2022-09-07T18:59:34.733Z,20.99
2022-09-07T19:02:04.928Z,20.98
2022-09-07T19:07:20.919Z,20.67
2022-09-07T19:09:48.250Z,20.73
2022-09-07T19:12:15.182Z,20.56
2022-09-07T19:14:42.287Z,20.44
2022-09-07T19:17:11.109Z,20.33
2022-09-07T19:19:38.739Z,20.23
2022-09-07T19:22:06.048Z,20.28
2022-09-07T19:24:33.399Z,20.21
2022-09-07T19:27:01.050Z,20.20
2022-09-07T19:29:28.218Z,20.14
2022-09-07T19:32:07.819Z,20.09
2022-09-07T19:34:42.998Z,19.95
2022-09-07T19:37:11.579Z,19.85
2022-09-07T19:39:38.176Z,19.98
2022-09-07T19:42:05.962Z,19.88
2022-09-07T19:44:32.860Z,19.94
2022-09-07T19:47:00.660Z,19.95
2022-09-07T19:49:27.966Z,19.76
2022-09-07T19:51:54.849Z,19.85
2022-09-07T19:54:21.763Z,19.87
2022-09-07T19:56:48.443Z,19.80
2022-09-07T19:59:15.102Z,19.79
2022-09-07T20:01:46.026Z,19.65
2022-09-07T20:04:19.686Z,19.75
2022-09-07T20:06:49.815Z,19.89
2022-09-07T20:09:18.245Z,19.89
2022-09-07T20:11:46.951Z,19.72
2022-09-07T20:14:17.284Z,19.59
2022-09-07T20:16:44.121Z,19.68
2022-09-07T20:19:11.926Z,19.81
2022-09-07T20:21:38.711Z,19.81
2022-09-07T20:24:05.784Z,19.80
2022-09-07T20:26:32.959Z,19.85
2022-09-07T20:29:25.679Z,19.79
2022-09-07T20:31:47.108Z,19.85
2022-09-07T20:34:14.534Z,19.97
2022-09-07T20:36:41.387Z,20.11
2022-09-07T20:39:08.545Z,20.25
2022-09-07T20:41:35.404Z,20.25
2022-09-07T20:44:04.214Z,19.83
2022-09-07T20:46:31.585Z,19.75
2022-09-07T20:48:58.654Z,19.60
2022-09-07T20:51:25.927Z,19.76
2022-09-07T20:53:52.794Z,19.77
2022-09-07T20:56:21.677Z,19.81
2022-09-07T20:58:49.519Z,19.74
2022-09-07T21:01:18.121Z,19.46
2022-09-07T21:03:49.706Z,19.29
2022-09-07T21:06:17.798Z,19.28
2022-09-07T21:08:45.829Z,19.24
2022-09-07T21:11:19.334Z,19.23
2022-09-07T21:13:46.949Z,19.14
2022-09-07T21:16:16.296Z,18.82
2022-09-07T21:18:44.484Z,18.81
2022-09-07T21:21:20.565Z,18.68
2022-09-07T21:23:48.045Z,18.62
2022-09-07T21:26:14.802Z,18.66
2022-09-07T21:28:41.352Z,18.59
2022-09-07T21:31:09.351Z,18.55
2022-09-07T21:33:37.683Z,18.52
2022-09-07T21:36:06.245Z,18.51
2022-09-07T21:38:34.733Z,18.49
2022-09-07T21:41:12.795Z,18.55
2022-09-07T21:43:39.978Z,18.63
2022-09-07T21:46:11.523Z,18.75
2022-09-07T21:48:38.529Z,18.76
2022-09-07T21:51:05.666Z,18.61
2022-09-07T21:53:32.658Z,18.68
2022-09-07T21:56:01.847Z,18.56
2022-09-07T21:58:29.403Z,18.68
2022-09-07T22:00:57.153Z,18.68
2022-09-07T22:03:25.251Z,18.91
2022-09-07T22:05:52.711Z,18.82
2022-09-07T22:08:19.614Z,19.03
2022-09-07T22:10:46.622Z,18.88
2022-09-07T22:13:13.414Z,18.82
2022-09-07T22:15:41.632Z,19.03
2022-09-07T22:18:11.987Z,19.29
2022-09-07T22:20:38.892Z,19.28
2022-09-07T22:23:05.865Z,19.34
2022-09-07T22:25:33.223Z,19.13
2022-09-07T22:27:59.963Z,18.91
2022-09-07T22:30:26.776Z,19.03
2022-09-07T22:32:53.620Z,18.98
2022-09-07T22:35:20.813Z,18.98
2022-09-07T22:37:47.368Z,18.97
2022-09-07T22:40:14.959Z,18.84
2022-09-07T22:42:41.991Z,19.00
2022-09-07T22:45:09.257Z,18.85
2022-09-07T22:47:35.786Z,18.91
2022-09-07T22:50:02.322Z,18.91
2022-09-07T22:52:28.879Z,18.73
2022-09-07T22:54:55.407Z,18.70
2022-09-07T22:57:21.985Z,18.79
2022-09-07T22:59:48.602Z,18.82
2022-09-07T23:02:15.190Z,18.77
2022-09-07T23:04:41.777Z,18.75
2022-09-07T23:07:08.494Z,18.84
2022-09-07T23:09:35.070Z,18.75
2022-09-07T23:12:01.798Z,18.74
2022-09-07T23:14:28.401Z,18.81
2022-09-07T23:16:54.989Z,18.83
2022-09-07T23:19:21.663Z,18.90
2022-09-07T23:21:48.451Z,18.93
2022-09-07T23:24:18.039Z,19.14
2022-09-07T23:26:44.838Z,19.01
2022-09-07T23:29:13.491Z,18.99
2022-09-07T23:31:40.983Z,18.94
2022-09-07T23:34:07.877Z,18.75
2022-09-07T23:36:34.597Z,18.79
2022-09-07T23:39:01.445Z,18.71
2022-09-07T23:41:28.866Z,18.92
2022-09-07T23:43:55.898Z,19.00
2022-09-07T23:46:23.084Z,18.87
2022-09-07T23:48:50.268Z,18.76
2022-09-07T23:51:22.777Z,18.70
2022-09-07T23:53:50.525Z,18.61
2022-09-07T23:56:17.407Z,18.52
2022-09-07T23:58:44.037Z,18.57
